createdAt,value
2022-10-23T07:13:09.632Z,24.02
2022-10-23T07:15:36.771Z,25.13
2022-10-23T07:18:03.770Z,25.57
2022-10-23T07:20:30.710Z,26.17
2022-10-23T07:22:57.575Z,24.90
2022-10-23T07:25:26.000Z,21.50
2022-10-23T07:27:54.715Z,15.77
2022-10-23T07:30:22.242Z,15.50
2022-10-23T07:32:49.114Z,11.97
2022-10-23T07:35:17.202Z,12.40
2022-10-23T07:37:44.377Z,11.80
2022-10-23T07:40:11.927Z,11.63
2022-10-23T07:42:38.807Z,11.73
2022-10-23T07:45:06.771Z,9.57
2022-10-23T07:47:33.975Z,11.53
2022-10-23T07:50:00.904Z,10.57
2022-10-23T07:52:31.958Z,10.73
2022-10-23T07:55:02.224Z,11.23
2022-10-23T07:57:29.101Z,12.00
2022-10-23T07:59:55.993Z,9.77
2022-10-23T08:02:22.967Z,10.20
2022-10-23T08:04:50.637Z,8.73
2022-10-23T08:07:17.803Z,13.77
2022-10-23T08:09:44.673Z,8.43
2022-10-23T08:12:11.509Z,9.20
2022-10-23T08:14:38.643Z,7.27
2022-10-23T08:17:08.892Z,7.03
2022-10-23T08:19:36.003Z,6.77
2022-10-23T08:22:03.307Z,6.30
2022-10-23T08:24:30.229Z,6.30
2022-10-23T08:26:57.946Z,6.73
2022-10-23T10:22:39.190Z,7.88
2022-10-23T10:25:13.329Z,5.40
2022-10-23T10:27:49.315Z,4.93
2022-10-23T10:30:19.885Z,6.27
2022-10-23T10:32:54.003Z,4.00
2022-10-23T10:35:28.290Z,5.77
2022-10-23T10:38:13.008Z,4.93
2022-10-23T10:40:42.647Z,3.90
2022-10-23T10:43:46.903Z,4.47
2022-10-23T10:46:22.569Z,4.20
2022-10-23T10:48:55.127Z,3.70
2022-10-23T10:51:29.015Z,5.27
2022-10-23T10:54:21.577Z,7.03
2022-10-23T10:56:48.883Z,5.33
2022-10-23T10:59:23.067Z,4.07
2022-10-23T11:01:56.492Z,6.60
2022-10-23T11:04:33.778Z,5.70
2022-10-23T11:14:27.315Z,7.32
2022-10-23T11:17:03.370Z,6.30
2022-10-23T11:19:38.109Z,7.03
2022-10-23T11:22:10.949Z,8.97
2022-10-23T11:25:01.720Z,7.07
2022-10-23T11:27:42.524Z,3.77
2022-10-23T11:30:22.490Z,6.03
2022-10-23T11:33:25.668Z,2.43
2022-10-23T11:36:02.677Z,3.73
2022-10-23T11:38:31.746Z,4.83
2022-10-23T11:41:01.422Z,6.20
2022-10-23T11:43:29.885Z,4.57
2022-10-23T11:45:58.111Z,2.67
2022-10-23T11:48:37.532Z,3.00
2022-10-23T11:51:05.308Z,6.13
2022-10-23T11:53:39.778Z,3.37
2022-10-23T11:56:25.066Z,3.73
2022-10-23T11:58:53.532Z,5.70
2022-10-23T12:01:27.936Z,6.50
2022-10-23T12:03:57.910Z,3.63
2022-10-23T12:06:27.600Z,2.83
2022-10-23T12:08:59.250Z,5.13
2022-10-23T12:11:29.419Z,3.97
2022-10-23T12:13:56.342Z,4.20
2022-10-23T12:16:34.382Z,3.20
2022-10-23T12:19:18.825Z,2.37
2022-10-23T12:21:46.517Z,3.40
2022-10-23T12:24:26.342Z,4.83
2022-10-23T12:27:12.874Z,4.77
2022-10-23T12:32:36.759Z,4.10
2022-10-23T12:35:21.008Z,3.90
2022-10-23T12:38:07.098Z,4.53
2022-10-23T12:40:34.092Z,3.80
2022-10-23T12:43:01.245Z,4.70
2022-10-23T12:45:30.224Z,3.37
2022-10-23T12:47:57.526Z,5.23
2022-10-23T12:50:26.550Z,6.80
2022-10-23T12:52:57.816Z,4.43
2022-10-23T12:55:25.522Z,5.00
2022-10-23T12:57:56.363Z,7.20
2022-10-23T13:00:24.997Z,5.10
2022-10-23T13:03:00.087Z,2.70
2022-10-23T13:05:27.576Z,3.40
2022-10-23T13:07:54.971Z,6.27
2022-10-23T13:10:23.922Z,5.43
2022-10-23T13:12:55.167Z,8.00
2022-10-23T13:15:22.823Z,6.77
2022-10-23T13:18:02.016Z,8.03
2022-10-23T13:20:30.909Z,3.97
2022-10-23T13:23:01.276Z,3.37
2022-10-23T13:25:30.666Z,6.27
2022-10-23T13:28:13.992Z,7.43
2022-10-23T13:30:42.922Z,6.13
2022-10-23T13:33:22.878Z,5.53
2022-10-23T13:35:57.075Z,3.93
2022-10-23T13:38:30.048Z,5.20
2022-10-23T13:40:59.348Z,3.40
2022-10-23T13:43:27.040Z,5.67
2022-10-23T13:45:54.316Z,3.47
2022-10-23T13:48:22.376Z,5.13
2022-10-23T13:50:49.253Z,2.80
2022-10-23T13:53:16.486Z,5.17
2022-10-23T13:55:44.191Z,3.10
2022-10-23T13:58:11.293Z,3.67
2022-10-23T14:00:39.319Z,6.10
2022-10-23T14:03:06.250Z,8.47
2022-10-23T14:05:33.458Z,5.93
2022-10-23T14:08:00.442Z,3.57
2022-10-23T14:10:28.579Z,6.77
2022-10-23T14:12:55.191Z,6.05
2022-10-23T14:15:22.254Z,5.85
2022-10-23T14:17:49.170Z,3.73
2022-10-23T14:20:19.038Z,3.73
2022-10-23T14:22:47.156Z,3.90
2022-10-23T14:25:14.435Z,4.17
2022-10-23T14:27:41.390Z,4.83
2022-10-23T14:30:10.411Z,7.60
2022-10-23T14:32:37.461Z,6.20
2022-10-23T14:35:04.762Z,5.30
2022-10-23T14:37:31.645Z,7.33
2022-10-23T14:39:59.299Z,5.07
2022-10-23T14:42:30.494Z,7.67
2022-10-23T14:45:00.951Z,4.53
2022-10-23T14:47:27.887Z,7.23
2022-10-23T14:49:55.473Z,9.23
2022-10-23T14:52:22.568Z,5.43
2022-10-23T14:54:50.953Z,5.87
2022-10-23T14:57:20.475Z,3.03
2022-10-23T14:59:47.769Z,4.57
2022-10-23T15:02:14.977Z,5.40
2022-10-23T15:04:42.009Z,6.63
2022-10-23T15:07:08.922Z,5.13
2022-10-23T15:09:36.676Z,7.43
2022-10-23T15:12:03.775Z,3.07
2022-10-23T15:14:31.284Z,6.57
2022-10-23T15:16:58.440Z,9.60
2022-10-23T15:19:25.654Z,4.67
2022-10-23T15:21:52.637Z,5.80
2022-10-23T15:24:20.381Z,5.50
2022-10-23T15:26:47.717Z,6.90
2022-10-23T15:29:15.045Z,9.17
2022-10-23T15:31:56.606Z,6.53
2022-10-23T15:34:28.499Z,6.83
2022-10-23T15:36:58.554Z,4.20
2022-10-23T15:39:27.890Z,5.20
2022-10-23T15:41:56.299Z,6.87
2022-10-23T15:44:25.014Z,5.20
2022-10-23T15:46:52.995Z,7.20
2022-10-23T15:49:20.688Z,3.93
2022-10-23T15:51:47.706Z,5.33
2022-10-23T15:54:17.762Z,3.83
2022-10-23T15:56:45.787Z,3.47
2022-10-23T15:59:12.925Z,4.27
2022-10-23T16:01:40.015Z,7.07
2022-10-23T16:04:07.473Z,6.50
2022-10-23T16:06:34.392Z,4.70
2022-10-23T16:09:01.582Z,4.67
2022-10-23T16:11:30.533Z,5.17
2022-10-23T16:13:59.334Z,8.30
2022-10-23T16:16:28.272Z,7.47
2022-10-23T16:18:55.954Z,5.07
2022-10-23T16:21:25.123Z,9.73
2022-10-23T16:23:53.682Z,4.47
2022-10-23T16:26:21.749Z,8.83
2022-10-23T16:28:52.703Z,8.37
2022-10-23T16:31:23.940Z,4.87
2022-10-23T16:33:51.926Z,4.73
2022-10-23T16:36:19.258Z,6.70
2022-10-23T16:38:46.658Z,7.20
2022-10-23T16:41:13.540Z,7.53
2022-10-23T16:43:40.674Z,5.70
2022-10-23T16:46:11.813Z,7.10
2022-10-23T16:48:38.685Z,7.37
2022-10-23T16:51:06.482Z,9.73
2022-10-23T16:53:33.392Z,7.23
2022-10-23T16:56:02.478Z,12.03
2022-10-23T16:58:29.205Z,9.97
2022-10-23T17:00:59.763Z,4.43
2022-10-23T17:03:26.881Z,6.27
2022-10-23T17:05:56.431Z,10.90
2022-10-23T17:08:25.097Z,6.23
2022-10-23T17:11:04.517Z,8.90
2022-10-23T17:13:31.443Z,7.33
2022-10-23T17:16:07.857Z,10.63
2022-10-23T17:18:34.874Z,7.60
2022-10-23T17:21:03.083Z,8.60
2022-10-23T17:23:30.410Z,7.87
2022-10-23T17:25:57.335Z,7.20
2022-10-23T17:28:25.149Z,10.07
2022-10-23T17:30:52.310Z,9.63
2022-10-23T17:33:19.418Z,5.17
2022-10-23T17:35:46.620Z,9.37
2022-10-23T17:38:17.259Z,6.83
2022-10-23T17:43:17.162Z,6.77
2022-10-23T17:45:44.703Z,10.93
2022-10-23T17:48:12.104Z,5.20
2022-10-23T17:50:39.284Z,6.93
2022-10-23T17:53:06.153Z,6.90
2022-10-23T17:55:37.842Z,6.13
2022-10-23T17:58:04.738Z,6.03
2022-10-23T18:00:31.633Z,7.50
2022-10-23T18:02:59.972Z,6.47
2022-10-23T18:05:26.884Z,10.50
2022-10-23T18:07:54.544Z,6.93
2022-10-23T18:10:21.726Z,4.23
2022-10-23T18:12:48.627Z,5.13
2022-10-23T18:15:15.607Z,5.70
2022-10-23T18:17:42.817Z,5.27
2022-10-23T18:20:11.380Z,4.10
2022-10-23T18:22:38.339Z,8.30
2022-10-23T18:25:05.790Z,7.03
2022-10-23T18:27:32.749Z,7.53
2022-10-23T18:29:59.750Z,7.60
2022-10-23T18:32:27.595Z,6.10
2022-10-23T18:34:54.585Z,5.97
2022-10-23T18:37:22.265Z,8.30
2022-10-23T18:39:49.098Z,7.60
2022-10-23T18:42:16.411Z,7.67
2022-10-23T18:44:49.236Z,6.67
2022-10-23T18:49:48.454Z,4.73
2022-10-23T18:52:21.293Z,7.67
2022-10-23T18:54:48.480Z,7.40
2022-10-23T18:57:15.489Z,7.43
2022-10-23T18:59:43.084Z,4.80
2022-10-23T19:02:11.911Z,5.13
2022-10-23T19:04:39.120Z,6.73
2022-10-23T19:07:06.012Z,7.87
2022-10-23T19:09:33.544Z,5.17
2022-10-23T19:12:01.653Z,7.27
2022-10-23T19:14:29.209Z,6.53
2022-10-23T19:17:00.790Z,5.20
2022-10-23T19:19:31.333Z,7.53
2022-10-23T19:21:58.835Z,9.17
2022-10-23T19:24:36.209Z,5.60
2022-10-23T19:27:05.824Z,5.97
2022-10-23T19:29:33.059Z,5.87
2022-10-23T19:32:00.135Z,5.90
2022-10-23T19:34:27.819Z,6.97
2022-10-23T19:36:54.820Z,4.67
2022-10-23T19:39:22.501Z,5.10
2022-10-23T19:41:50.901Z,7.07
2022-10-23T19:44:19.848Z,7.57
2022-10-23T19:46:47.152Z,4.20
2022-10-23T19:49:14.616Z,4.70
2022-10-23T19:51:46.990Z,5.87
2022-10-23T19:54:17.653Z,8.23
2022-10-23T19:56:44.337Z,6.37
2022-10-23T19:59:12.733Z,7.00
2022-10-23T20:01:43.787Z,6.43
2022-10-23T20:04:13.423Z,6.60
2022-10-23T20:06:40.275Z,7.53
2022-10-23T20:09:09.286Z,6.17
2022-10-23T20:11:38.526Z,5.60
2022-10-23T20:14:06.230Z,5.97
2022-10-23T20:16:36.557Z,6.50
2022-10-23T20:19:05.857Z,7.80
2022-10-23T20:21:33.066Z,6.70
2022-10-23T20:23:59.990Z,7.97
2022-10-23T20:26:27.639Z,6.07
2022-10-23T20:28:55.694Z,7.80
2022-10-23T20:31:24.442Z,6.43
2022-10-23T20:33:51.717Z,7.10
2022-10-23T20:36:25.299Z,7.97
2022-10-23T20:38:52.469Z,6.43
2022-10-23T20:41:19.423Z,7.53
2022-10-23T20:43:48.844Z,6.57
2022-10-23T20:46:15.853Z,5.40
2022-10-23T20:48:43.729Z,8.93
2022-10-23T20:51:12.221Z,7.80
2022-10-23T20:53:40.288Z,6.63
2022-10-23T20:56:07.610Z,6.67
2022-10-23T20:58:34.514Z,7.80
2022-10-23T21:01:07.416Z,9.27
2022-10-23T21:03:34.428Z,5.83
2022-10-23T21:06:04.409Z,12.77
2022-10-23T21:08:31.355Z,6.10
2022-10-23T21:10:58.624Z,9.17
